Terminal Aerodrome Forecast
Issued by NWS

Current Version | Previous Version | Graphics & Text | Print | Product List | Glossary On
Versions: 1 2 3 4 5 6 7 8 9 10 11 12 13 14 15 16 17 18 19
000
FTUS41 KILN 300830 AAA
TAFLUK
TAF AMD
KLUK 300830Z 3009/3106 32004KT P6SM OVC040
     FM301300 30006KT P6SM FEW250
     FM301600 31009G16KT P6SM SCT040
     FM302300 VRB04KT P6SM SKC=

USA.gov is the U.S. government's official web portal to all federal, state and local government web resources and services.